sensor_id;sensor_type;location;lat;lon;timestamp;P1;durP1;ratioP1;P2;durP2;ratioP2
8568;SDS011;4322;51.104;-4.162;2022-09-09T00:01:58;3.03;;;2.93;;
8568;SDS011;4322;51.104;-4.162;2022-09-09T00:04:29;3.50;;;3.40;;
8568;SDS011;4322;51.104;-4.162;2022-09-09T00:07:01;3.37;;;3.27;;
8568;SDS011;4322;51.104;-4.162;2022-09-09T00:09:35;2.70;;;2.60;;
8568;SDS011;4322;51.104;-4.162;2022-09-09T00:12:10;2.70;;;2.60;;
8568;SDS011;4322;51.104;-4.162;2022-09-09T00:14:44;2.87;;;2.77;;
8568;SDS011;4322;51.104;-4.162;2022-09-09T00:17:20;2.80;;;2.70;;
8568;SDS011;4322;51.104;-4.162;2022-09-09T00:20:00;2.60;;;2.50;;
8568;SDS011;4322;51.104;-4.162;2022-09-09T00:22:33;3.00;;;2.90;;
8568;SDS011;4322;51.104;-4.162;2022-09-09T00:25:02;2.87;;;2.77;;
8568;SDS011;4322;51.104;-4.162;2022-09-09T00:27:39;3.10;;;3.00;;
8568;SDS011;4322;51.104;-4.162;2022-09-09T00:30:15;3.10;;;3.00;;
8568;SDS011;4322;51.104;-4.162;2022-09-09T00:32:46;2.80;;;2.70;;
8568;SDS011;4322;51.104;-4.162;2022-09-09T00:35:16;3.10;;;3.00;;
8568;SDS011;4322;51.104;-4.162;2022-09-09T00:37:50;3.30;;;3.20;;
8568;SDS011;4322;51.104;-4.162;2022-09-09T00:40:24;2.67;;;2.57;;
8568;SDS011;4322;51.104;-4.162;2022-09-09T00:43:05;2.73;;;2.63;;
8568;SDS011;4322;51.104;-4.162;2022-09-09T00:46:01;2.57;;;2.47;;
8568;SDS011;4322;51.104;-4.162;2022-09-09T00:48:45;2.90;;;2.80;;
8568;SDS011;4322;51.104;-4.162;2022-09-09T00:51:23;3.27;;;3.17;;
8568;SDS011;4322;51.104;-4.162;2022-09-09T00:57:04;2.83;;;2.73;;
8568;SDS011;4322;51.104;-4.162;2022-09-09T00:59:43;3.17;;;3.07;;
8568;SDS011;4322;51.104;-4.162;2022-09-09T01:02:18;2.97;;;2.87;;
8568;SDS011;4322;51.104;-4.162;2022-09-09T01:04:53;2.70;;;2.60;;
8568;SDS011;4322;51.104;-4.162;2022-09-09T01:07:22;2.80;;;2.70;;
8568;SDS011;4322;51.104;-4.162;2022-09-09T01:09:52;2.40;;;2.30;;
8568;SDS011;4322;51.104;-4.162;2022-09-09T01:12:24;2.73;;;2.63;;
8568;SDS011;4322;51.104;-4.162;2022-09-09T01:15:03;2.73;;;2.63;;
8568;SDS011;4322;51.104;-4.162;2022-09-09T01:17:41;3.40;;;3.30;;
8568;SDS011;4322;51.104;-4.162;2022-09-09T01:20:18;2.80;;;2.70;;
8568;SDS011;4322;51.104;-4.162;2022-09-09T01:23:04;3.33;;;3.23;;
8568;SDS011;4322;51.104;-4.162;2022-09-09T01:26:04;3.40;;;3.30;;
8568;SDS011;4322;51.104;-4.162;2022-09-09T01:28:41;3.60;;;3.50;;
8568;SDS011;4322;51.104;-4.162;2022-09-09T01:31:13;3.27;;;3.17;;
8568;SDS011;4322;51.104;-4.162;2022-09-09T01:33:44;2.80;;;2.70;;
8568;SDS011;4322;51.104;-4.162;2022-09-09T01:36:13;2.50;;;2.40;;
8568;SDS011;4322;51.104;-4.162;2022-09-09T01:38:47;3.10;;;3.00;;
8568;SDS011;4322;51.104;-4.162;2022-09-09T01:41:17;3.60;;;3.50;;
8568;SDS011;4322;51.104;-4.162;2022-09-09T01:43:45;3.47;;;3.37;;
8568;SDS011;4322;51.104;-4.162;2022-09-09T01:46:13;3.20;;;3.10;;
8568;SDS011;4322;51.104;-4.162;2022-09-09T01:48:42;3.23;;;3.13;;
8568;SDS011;4322;51.104;-4.162;2022-09-09T01:51:10;3.10;;;3.00;;
8568;SDS011;4322;51.104;-4.162;2022-09-09T01:53:38;2.63;;;2.53;;
8568;SDS011;4322;51.104;-4.162;2022-09-09T01:56:10;2.73;;;2.63;;
8568;SDS011;4322;51.104;-4.162;2022-09-09T01:58:54;2.60;;;2.50;;
8568;SDS011;4322;51.104;-4.162;2022-09-09T02:01:35;2.80;;;2.70;;
8568;SDS011;4322;51.104;-4.162;2022-09-09T02:04:18;2.73;;;2.63;;
8568;SDS011;4322;51.104;-4.162;2022-09-09T02:06:56;3.20;;;3.10;;
8568;SDS011;4322;51.104;-4.162;2022-09-09T02:09:24;3.10;;;3.00;;
8568;SDS011;4322;51.104;-4.162;2022-09-09T02:11:57;2.70;;;2.60;;
8568;SDS011;4322;51.104;-4.162;2022-09-09T02:14:36;2.50;;;2.40;;
8568;SDS011;4322;51.104;-4.162;2022-09-09T02:17:09;2.90;;;2.80;;
8568;SDS011;4322;51.104;-4.162;2022-09-09T02:19:42;2.70;;;2.60;;
8568;SDS011;4322;51.104;-4.162;2022-09-09T02:22:15;2.33;;;2.23;;
8568;SDS011;4322;51.104;-4.162;2022-09-09T02:24:47;2.63;;;2.53;;
8568;SDS011;4322;51.104;-4.162;2022-09-09T02:27:19;2.80;;;2.70;;
8568;SDS011;4322;51.104;-4.162;2022-09-09T02:29:51;3.07;;;2.97;;
8568;SDS011;4322;51.104;-4.162;2022-09-09T02:32:26;3.20;;;3.10;;
8568;SDS011;4322;51.104;-4.162;2022-09-09T02:34:57;2.80;;;2.70;;
8568;SDS011;4322;51.104;-4.162;2022-09-09T02:37:30;2.90;;;2.80;;
8568;SDS011;4322;51.104;-4.162;2022-09-09T02:40:02;3.27;;;3.17;;
8568;SDS011;4322;51.104;-4.162;2022-09-09T02:42:32;2.90;;;2.80;;
8568;SDS011;4322;51.104;-4.162;2022-09-09T02:45:07;2.73;;;2.63;;
8568;SDS011;4322;51.104;-4.162;2022-09-09T02:47:37;3.20;;;3.10;;
8568;SDS011;4322;51.104;-4.162;2022-09-09T02:50:12;3.27;;;3.17;;
8568;SDS011;4322;51.104;-4.162;2022-09-09T02:52:46;2.80;;;2.70;;
8568;SDS011;4322;51.104;-4.162;2022-09-09T02:55:23;2.70;;;2.60;;
8568;SDS011;4322;51.104;-4.162;2022-09-09T02:57:58;2.80;;;2.70;;
8568;SDS011;4322;51.104;-4.162;2022-09-09T03:00:29;2.40;;;2.30;;
8568;SDS011;4322;51.104;-4.162;2022-09-09T03:02:59;2.70;;;2.60;;
8568;SDS011;4322;51.104;-4.162;2022-09-09T03:05:27;2.83;;;2.73;;
8568;SDS011;4322;51.104;-4.162;2022-09-09T03:07:55;3.40;;;3.30;;
8568;SDS011;4322;51.104;-4.162;2022-09-09T03:10:23;2.90;;;2.80;;
8568;SDS011;4322;51.104;-4.162;2022-09-09T03:12:51;3.17;;;3.07;;
8568;SDS011;4322;51.104;-4.162;2022-09-09T03:15:19;2.57;;;2.47;;
8568;SDS011;4322;51.104;-4.162;2022-09-09T03:17:48;2.60;;;2.50;;
8568;SDS011;4322;51.104;-4.162;2022-09-09T03:20:17;2.83;;;2.73;;
8568;SDS011;4322;51.104;-4.162;2022-09-09T03:22:45;2.73;;;2.63;;
8568;SDS011;4322;51.104;-4.162;2022-09-09T03:25:13;3.00;;;2.90;;
8568;SDS011;4322;51.104;-4.162;2022-09-09T03:27:41;3.07;;;2.97;;
8568;SDS011;4322;51.104;-4.162;2022-09-09T03:30:09;2.77;;;2.67;;
8568;SDS011;4322;51.104;-4.162;2022-09-09T03:32:38;3.30;;;3.20;;
8568;SDS011;4322;51.104;-4.162;2022-09-09T03:35:08;3.30;;;3.20;;
8568;SDS011;4322;51.104;-4.162;2022-09-09T03:37:36;2.93;;;2.83;;
8568;SDS011;4322;51.104;-4.162;2022-09-09T03:40:05;2.97;;;2.87;;
8568;SDS011;4322;51.104;-4.162;2022-09-09T03:42:37;3.17;;;3.07;;
8568;SDS011;4322;51.104;-4.162;2022-09-09T03:45:06;2.50;;;2.40;;
8568;SDS011;4322;51.104;-4.162;2022-09-09T03:47:37;3.10;;;3.00;;
8568;SDS011;4322;51.104;-4.162;2022-09-09T03:50:05;2.17;;;2.13;;
8568;SDS011;4322;51.104;-4.162;2022-09-09T03:52:38;2.50;;;2.40;;
8568;SDS011;4322;51.104;-4.162;2022-09-09T03:55:09;2.73;;;2.63;;
8568;SDS011;4322;51.104;-4.162;2022-09-09T03:57:37;2.60;;;2.50;;
8568;SDS011;4322;51.104;-4.162;2022-09-09T04:00:06;2.93;;;2.83;;
8568;SDS011;4322;51.104;-4.162;2022-09-09T04:02:38;2.70;;;2.60;;
8568;SDS011;4322;51.104;-4.162;2022-09-09T04:05:06;2.80;;;2.70;;
8568;SDS011;4322;51.104;-4.162;2022-09-09T04:07:34;3.07;;;2.97;;
8568;SDS011;4322;51.104;-4.162;2022-09-09T04:10:04;3.00;;;2.90;;
8568;SDS011;4322;51.104;-4.162;2022-09-09T04:12:33;2.53;;;2.43;;
8568;SDS011;4322;51.104;-4.162;2022-09-09T04:15:02;2.67;;;2.57;;
8568;SDS011;4322;51.104;-4.162;2022-09-09T04:17:30;2.43;;;2.33;;
8568;SDS011;4322;51.104;-4.162;2022-09-09T04:19:59;2.50;;;2.40;;
8568;SDS011;4322;51.104;-4.162;2022-09-09T04:22:27;3.00;;;2.90;;
8568;SDS011;4322;51.104;-4.162;2022-09-09T04:24:55;1.90;;;1.90;;
8568;SDS011;4322;51.104;-4.162;2022-09-09T04:27:24;2.00;;;2.00;;
8568;SDS011;4322;51.104;-4.162;2022-09-09T04:29:52;2.13;;;2.13;;
8568;SDS011;4322;51.104;-4.162;2022-09-09T04:32:21;2.23;;;2.20;;
8568;SDS011;4322;51.104;-4.162;2022-09-09T04:34:50;2.47;;;2.37;;
8568;SDS011;4322;51.104;-4.162;2022-09-09T04:37:18;2.33;;;2.23;;
8568;SDS011;4322;51.104;-4.162;2022-09-09T04:39:46;2.07;;;2.07;;
8568;SDS011;4322;51.104;-4.162;2022-09-09T04:42:14;2.30;;;2.20;;
8568;SDS011;4322;51.104;-4.162;2022-09-09T04:44:44;2.87;;;2.77;;
8568;SDS011;4322;51.104;-4.162;2022-09-09T04:47:11;2.30;;;2.20;;
8568;SDS011;4322;51.104;-4.162;2022-09-09T04:49:40;2.37;;;2.27;;
8568;SDS011;4322;51.104;-4.162;2022-09-09T04:52:08;2.70;;;2.60;;
8568;SDS011;4322;51.104;-4.162;2022-09-09T04:54:36;2.90;;;2.80;;
8568;SDS011;4322;51.104;-4.162;2022-09-09T04:57:05;2.93;;;2.83;;
8568;SDS011;4322;51.104;-4.162;2022-09-09T04:59:33;2.73;;;2.63;;
8568;SDS011;4322;51.104;-4.162;2022-09-09T05:02:02;2.70;;;2.60;;
8568;SDS011;4322;51.104;-4.162;2022-09-09T05:04:30;2.80;;;2.70;;
8568;SDS011;4322;51.104;-4.162;2022-09-09T05:06:59;3.00;;;2.90;;
8568;SDS011;4322;51.104;-4.162;2022-09-09T05:09:27;2.93;;;2.83;;
8568;SDS011;4322;51.104;-4.162;2022-09-09T05:11:55;15.17;;;14.43;;
8568;SDS011;4322;51.104;-4.162;2022-09-09T05:14:24;15.87;;;15.07;;
8568;SDS011;4322;51.104;-4.162;2022-09-09T05:16:52;20.23;;;19.23;;
8568;SDS011;4322;51.104;-4.162;2022-09-09T05:19:22;20.40;;;19.40;;
8568;SDS011;4322;51.104;-4.162;2022-09-09T05:21:49;16.60;;;15.80;;
8568;SDS011;4322;51.104;-4.162;2022-09-09T05:24:17;17.40;;;16.50;;
8568;SDS011;4322;51.104;-4.162;2022-09-09T05:26:45;15.47;;;14.67;;
8568;SDS011;4322;51.104;-4.162;2022-09-09T05:29:14;15.60;;;14.80;;
8568;SDS011;4322;51.104;-4.162;2022-09-09T05:31:44;18.60;;;17.70;;
8568;SDS011;4322;51.104;-4.162;2022-09-09T05:34:15;16.40;;;15.60;;
8568;SDS011;4322;51.104;-4.162;2022-09-09T05:36:45;16.13;;;15.33;;
8568;SDS011;4322;51.104;-4.162;2022-09-09T05:39:14;16.70;;;15.90;;
8568;SDS011;4322;51.104;-4.162;2022-09-09T05:41:43;16.90;;;16.10;;
8568;SDS011;4322;51.104;-4.162;2022-09-09T05:44:12;18.13;;;17.23;;
8568;SDS011;4322;51.104;-4.162;2022-09-09T05:46:40;21.90;;;20.80;;
8568;SDS011;4322;51.104;-4.162;2022-09-09T05:49:09;15.53;;;14.73;;
8568;SDS011;4322;51.104;-4.162;2022-09-09T05:51:37;18.57;;;17.67;;
8568;SDS011;4322;51.104;-4.162;2022-09-09T05:54:07;12.60;;;12.00;;
8568;SDS011;4322;51.104;-4.162;2022-09-09T05:56:36;17.67;;;16.77;;
8568;SDS011;4322;51.104;-4.162;2022-09-09T05:59:04;14.17;;;13.47;;
8568;SDS011;4322;51.104;-4.162;2022-09-09T06:01:33;15.30;;;14.53;;
8568;SDS011;4322;51.104;-4.162;2022-09-09T06:04:07;12.20;;;11.60;;
8568;SDS011;4322;51.104;-4.162;2022-09-09T06:06:35;12.37;;;11.77;;
8568;SDS011;4322;51.104;-4.162;2022-09-09T06:09:08;13.50;;;12.80;;
8568;SDS011;4322;51.104;-4.162;2022-09-09T06:11:38;12.90;;;12.30;;
8568;SDS011;4322;51.104;-4.162;2022-09-09T06:14:07;11.60;;;11.03;;
8568;SDS011;4322;51.104;-4.162;2022-09-09T06:16:35;11.63;;;11.03;;
8568;SDS011;4322;51.104;-4.162;2022-09-09T06:19:04;12.27;;;11.67;;
8568;SDS011;4322;51.104;-4.162;2022-09-09T06:21:33;12.07;;;11.47;;
8568;SDS011;4322;51.104;-4.162;2022-09-09T06:24:03;12.53;;;11.93;;
8568;SDS011;4322;51.104;-4.162;2022-09-09T06:26:33;10.63;;;10.13;;
8568;SDS011;4322;51.104;-4.162;2022-09-09T06:29:03;12.53;;;11.93;;
8568;SDS011;4322;51.104;-4.162;2022-09-09T06:31:32;13.23;;;12.60;;
8568;SDS011;4322;51.104;-4.162;2022-09-09T06:34:04;12.17;;;11.57;;
8568;SDS011;4322;51.104;-4.162;2022-09-09T06:36:33;12.07;;;11.47;;
8568;SDS011;4322;51.104;-4.162;2022-09-09T06:39:03;12.40;;;11.80;;
8568;SDS011;4322;51.104;-4.162;2022-09-09T06:41:39;12.17;;;11.57;;
8568;SDS011;4322;51.104;-4.162;2022-09-09T06:44:07;11.87;;;11.27;;
8568;SDS011;4322;51.104;-4.162;2022-09-09T06:46:38;11.43;;;10.90;;
8568;SDS011;4322;51.104;-4.162;2022-09-09T06:49:07;12.57;;;11.97;;
8568;SDS011;4322;51.104;-4.162;2022-09-09T06:51:36;12.13;;;11.53;;
8568;SDS011;4322;51.104;-4.162;2022-09-09T06:54:09;12.17;;;11.57;;
8568;SDS011;4322;51.104;-4.162;2022-09-09T06:56:39;10.67;;;10.17;;
8568;SDS011;4322;51.104;-4.162;2022-09-09T06:59:09;11.33;;;10.83;;
8568;SDS011;4322;51.104;-4.162;2022-09-09T07:01:38;11.57;;;11.00;;
8568;SDS011;4322;51.104;-4.162;2022-09-09T07:04:08;11.37;;;10.83;;
8568;SDS011;4322;51.104;-4.162;2022-09-09T07:06:37;10.37;;;9.87;;
8568;SDS011;4322;51.104;-4.162;2022-09-09T07:09:08;10.83;;;10.33;;
8568;SDS011;4322;51.104;-4.162;2022-09-09T07:11:37;10.40;;;9.90;;
8568;SDS011;4322;51.104;-4.162;2022-09-09T07:14:08;9.30;;;8.90;;
8568;SDS011;4322;51.104;-4.162;2022-09-09T07:16:39;9.43;;;9.03;;
8568;SDS011;4322;51.104;-4.162;2022-09-09T07:19:07;9.97;;;9.47;;
8568;SDS011;4322;51.104;-4.162;2022-09-09T07:21:35;12.07;;;11.47;;
8568;SDS011;4322;51.104;-4.162;2022-09-09T07:24:03;11.10;;;10.60;;
8568;SDS011;4322;51.104;-4.162;2022-09-09T07:26:33;10.57;;;10.07;;
8568;SDS011;4322;51.104;-4.162;2022-09-09T07:29:03;13.50;;;12.80;;
8568;SDS011;4322;51.104;-4.162;2022-09-09T07:31:32;11.67;;;11.07;;
8568;SDS011;4322;51.104;-4.162;2022-09-09T07:34:03;11.37;;;10.87;;
8568;SDS011;4322;51.104;-4.162;2022-09-09T07:36:33;10.73;;;10.23;;
8568;SDS011;4322;51.104;-4.162;2022-09-09T07:39:03;12.20;;;11.60;;
8568;SDS011;4322;51.104;-4.162;2022-09-09T07:41:33;10.97;;;10.47;;
8568;SDS011;4322;51.104;-4.162;2022-09-09T07:44:07;11.57;;;10.97;;
8568;SDS011;4322;51.104;-4.162;2022-09-09T07:46:38;10.57;;;10.07;;
8568;SDS011;4322;51.104;-4.162;2022-09-09T07:49:07;11.63;;;11.03;;
8568;SDS011;4322;51.104;-4.162;2022-09-09T07:51:37;10.17;;;9.67;;
8568;SDS011;4322;51.104;-4.162;2022-09-09T07:54:07;10.73;;;10.23;;
8568;SDS011;4322;51.104;-4.162;2022-09-09T07:56:37;8.60;;;8.20;;
8568;SDS011;4322;51.104;-4.162;2022-09-09T07:59:07;8.87;;;8.47;;
8568;SDS011;4322;51.104;-4.162;2022-09-09T08:01:37;10.43;;;9.93;;
8568;SDS011;4322;51.104;-4.162;2022-09-09T08:04:08;9.87;;;9.37;;
8568;SDS011;4322;51.104;-4.162;2022-09-09T08:06:41;9.43;;;9.03;;
8568;SDS011;4322;51.104;-4.162;2022-09-09T08:09:11;8.33;;;7.93;;
8568;SDS011;4322;51.104;-4.162;2022-09-09T08:11:39;8.10;;;7.70;;
8568;SDS011;4322;51.104;-4.162;2022-09-09T08:14:09;8.57;;;8.17;;
8568;SDS011;4322;51.104;-4.162;2022-09-09T08:16:39;10.07;;;9.57;;
8568;SDS011;4322;51.104;-4.162;2022-09-09T08:19:08;10.63;;;10.13;;
8568;SDS011;4322;51.104;-4.162;2022-09-09T08:21:37;10.30;;;9.80;;
8568;SDS011;4322;51.104;-4.162;2022-09-09T08:24:07;9.10;;;8.70;;
8568;SDS011;4322;51.104;-4.162;2022-09-09T08:26:38;9.03;;;8.63;;
8568;SDS011;4322;51.104;-4.162;2022-09-09T08:29:09;9.07;;;8.67;;
8568;SDS011;4322;51.104;-4.162;2022-09-09T08:31:39;9.50;;;9.10;;
8568;SDS011;4322;51.104;-4.162;2022-09-09T08:34:09;9.20;;;8.80;;
8568;SDS011;4322;51.104;-4.162;2022-09-09T08:36:38;9.43;;;9.03;;
8568;SDS011;4322;51.104;-4.162;2022-09-09T08:39:09;8.50;;;8.10;;
8568;SDS011;4322;51.104;-4.162;2022-09-09T08:41:44;8.90;;;8.50;;
8568;SDS011;4322;51.104;-4.162;2022-09-09T08:44:28;7.93;;;7.53;;
8568;SDS011;4322;51.104;-4.162;2022-09-09T08:47:05;6.93;;;6.63;;
8568;SDS011;4322;51.104;-4.162;2022-09-09T08:49:47;7.10;;;6.80;;
8568;SDS011;4322;51.104;-4.162;2022-09-09T08:52:28;7.03;;;6.73;;
8568;SDS011;4322;51.104;-4.162;2022-09-09T08:55:01;6.97;;;6.67;;
8568;SDS011;4322;51.104;-4.162;2022-09-09T08:57:38;7.53;;;7.23;;
8568;SDS011;4322;51.104;-4.162;2022-09-09T09:00:09;8.50;;;8.10;;
8568;SDS011;4322;51.104;-4.162;2022-09-09T09:02:39;7.30;;;7.00;;
8568;SDS011;4322;51.104;-4.162;2022-09-09T09:05:18;7.97;;;7.57;;
8568;SDS011;4322;51.104;-4.162;2022-09-09T09:07:55;8.47;;;8.07;;
8568;SDS011;4322;51.104;-4.162;2022-09-09T09:10:33;7.30;;;7.00;;
8568;SDS011;4322;51.104;-4.162;2022-09-09T09:13:13;7.50;;;7.20;;
8568;SDS011;4322;51.104;-4.162;2022-09-09T09:15:46;6.97;;;6.67;;
8568;SDS011;4322;51.104;-4.162;2022-09-09T09:18:17;7.30;;;7.00;;
8568;SDS011;4322;51.104;-4.162;2022-09-09T09:20:49;6.63;;;6.33;;
8568;SDS011;4322;51.104;-4.162;2022-09-09T09:23:22;7.97;;;7.57;;
8568;SDS011;4322;51.104;-4.162;2022-09-09T09:25:54;7.53;;;7.23;;
8568;SDS011;4322;51.104;-4.162;2022-09-09T09:28:26;7.50;;;7.20;;
8568;SDS011;4322;51.104;-4.162;2022-09-09T09:30:59;7.43;;;7.13;;
8568;SDS011;4322;51.104;-4.162;2022-09-09T09:33:33;7.43;;;7.13;;
8568;SDS011;4322;51.104;-4.162;2022-09-09T09:36:07;8.90;;;8.50;;
8568;SDS011;4322;51.104;-4.162;2022-09-09T09:38:39;8.37;;;7.97;;
8568;SDS011;4322;51.104;-4.162;2022-09-09T09:41:30;7.33;;;7.03;;
8568;SDS011;4322;51.104;-4.162;2022-09-09T09:44:01;9.07;;;8.67;;
8568;SDS011;4322;51.104;-4.162;2022-09-09T09:46:32;8.57;;;8.17;;
8568;SDS011;4322;51.104;-4.162;2022-09-09T09:49:00;9.20;;;8.80;;
8568;SDS011;4322;51.104;-4.162;2022-09-09T09:51:32;8.33;;;7.93;;
8568;SDS011;4322;51.104;-4.162;2022-09-09T09:54:04;8.53;;;8.13;;
8568;SDS011;4322;51.104;-4.162;2022-09-09T09:56:50;7.37;;;7.07;;
8568;SDS011;4322;51.104;-4.162;2022-09-09T09:59:22;8.57;;;8.17;;
8568;SDS011;4322;51.104;-4.162;2022-09-09T10:02:10;7.33;;;7.03;;
8568;SDS011;4322;51.104;-4.162;2022-09-09T10:04:42;6.53;;;6.23;;
8568;SDS011;4322;51.104;-4.162;2022-09-09T10:07:12;6.80;;;6.50;;
8568;SDS011;4322;51.104;-4.162;2022-09-09T10:09:43;6.10;;;5.80;;
8568;SDS011;4322;51.104;-4.162;2022-09-09T10:12:14;5.63;;;5.43;;
8568;SDS011;4322;51.104;-4.162;2022-09-09T10:14:56;6.97;;;6.67;;
8568;SDS011;4322;51.104;-4.162;2022-09-09T10:17:33;5.57;;;5.37;;
8568;SDS011;4322;51.104;-4.162;2022-09-09T10:20:17;5.40;;;5.20;;
8568;SDS011;4322;51.104;-4.162;2022-09-09T10:22:59;6.07;;;5.77;;
8568;SDS011;4322;51.104;-4.162;2022-09-09T10:25:44;5.67;;;5.47;;
8568;SDS011;4322;51.104;-4.162;2022-09-09T10:28:40;4.80;;;4.60;;
8568;SDS011;4322;51.104;-4.162;2022-09-09T10:31:34;5.27;;;5.07;;
8568;SDS011;4322;51.104;-4.162;2022-09-09T10:34:15;5.27;;;5.07;;
8568;SDS011;4322;51.104;-4.162;2022-09-09T10:36:56;5.00;;;4.80;;
8568;SDS011;4322;51.104;-4.162;2022-09-09T10:39:31;5.13;;;4.93;;
8568;SDS011;4322;51.104;-4.162;2022-09-09T10:42:09;5.13;;;4.93;;
8568;SDS011;4322;51.104;-4.162;2022-09-09T10:44:42;5.70;;;5.50;;
8568;SDS011;4322;51.104;-4.162;2022-09-09T10:47:25;4.43;;;4.23;;
8568;SDS011;4322;51.104;-4.162;2022-09-09T10:50:18;5.10;;;4.90;;
8568;SDS011;4322;51.104;-4.162;2022-09-09T10:53:23;4.33;;;4.13;;
8568;SDS011;4322;51.104;-4.162;2022-09-09T10:56:02;4.10;;;3.90;;
8568;SDS011;4322;51.104;-4.162;2022-09-09T10:58:36;4.40;;;4.20;;
8568;SDS011;4322;51.104;-4.162;2022-09-09T11:01:11;4.10;;;3.90;;
8568;SDS011;4322;51.104;-4.162;2022-09-09T11:03:43;4.23;;;4.03;;
8568;SDS011;4322;51.104;-4.162;2022-09-09T11:06:18;4.63;;;4.43;;
8568;SDS011;4322;51.104;-4.162;2022-09-09T11:08:49;3.30;;;3.20;;
8568;SDS011;4322;51.104;-4.162;2022-09-09T11:11:25;3.67;;;3.57;;
8568;SDS011;4322;51.104;-4.162;2022-09-09T11:13:58;3.33;;;3.23;;
8568;SDS011;4322;51.104;-4.162;2022-09-09T11:16:33;3.50;;;3.40;;
8568;SDS011;4322;51.104;-4.162;2022-09-09T11:19:11;3.90;;;3.80;;
8568;SDS011;4322;51.104;-4.162;2022-09-09T11:21:46;3.40;;;3.30;;
8568;SDS011;4322;51.104;-4.162;2022-09-09T11:24:16;3.60;;;3.50;;
8568;SDS011;4322;51.104;-4.162;2022-09-09T11:26:49;3.50;;;3.40;;
8568;SDS011;4322;51.104;-4.162;2022-09-09T11:29:28;3.90;;;3.80;;
8568;SDS011;4322;51.104;-4.162;2022-09-09T11:32:17;3.40;;;3.30;;
8568;SDS011;4322;51.104;-4.162;2022-09-09T11:35:01;3.27;;;3.17;;
8568;SDS011;4322;51.104;-4.162;2022-09-09T11:37:43;3.70;;;3.60;;
8568;SDS011;4322;51.104;-4.162;2022-09-09T11:40:28;3.30;;;3.20;;
8568;SDS011;4322;51.104;-4.162;2022-09-09T11:43:02;3.40;;;3.30;;
8568;SDS011;4322;51.104;-4.162;2022-09-09T11:45:33;4.20;;;4.00;;
8568;SDS011;4322;51.104;-4.162;2022-09-09T11:48:03;4.10;;;3.90;;
8568;SDS011;4322;51.104;-4.162;2022-09-09T11:50:33;3.60;;;3.50;;
8568;SDS011;4322;51.104;-4.162;2022-09-09T11:53:19;3.57;;;3.47;;
8568;SDS011;4322;51.104;-4.162;2022-09-09T11:56:00;3.13;;;3.03;;
8568;SDS011;4322;51.104;-4.162;2022-09-09T11:58:43;3.23;;;3.13;;
8568;SDS011;4322;51.104;-4.162;2022-09-09T12:01:27;3.00;;;2.90;;
8568;SDS011;4322;51.104;-4.162;2022-09-09T12:06:56;4.13;;;3.93;;
8568;SDS011;4322;51.104;-4.162;2022-09-09T12:09:33;3.50;;;3.40;;
8568;SDS011;4322;51.104;-4.162;2022-09-09T12:12:23;3.40;;;3.30;;
8568;SDS011;4322;51.104;-4.162;2022-09-09T12:15:17;3.70;;;3.60;;
8568;SDS011;4322;51.104;-4.162;2022-09-09T12:17:52;3.60;;;3.50;;
8568;SDS011;4322;51.104;-4.162;2022-09-09T12:20:31;3.57;;;3.47;;
8568;SDS011;4322;51.104;-4.162;2022-09-09T12:23:08;4.20;;;4.00;;
8568;SDS011;4322;51.104;-4.162;2022-09-09T12:28:55;3.43;;;3.33;;
8568;SDS011;4322;51.104;-4.162;2022-09-09T12:31:32;3.17;;;3.07;;
8568;SDS011;4322;51.104;-4.162;2022-09-09T12:34:11;3.50;;;3.40;;
8568;SDS011;4322;51.104;-4.162;2022-09-09T12:36:44;3.07;;;2.97;;
8568;SDS011;4322;51.104;-4.162;2022-09-09T12:39:21;3.10;;;3.00;;
8568;SDS011;4322;51.104;-4.162;2022-09-09T12:41:57;3.50;;;3.40;;
8568;SDS011;4322;51.104;-4.162;2022-09-09T12:44:25;3.07;;;2.97;;
8568;SDS011;4322;51.104;-4.162;2022-09-09T12:46:55;3.40;;;3.30;;
8568;SDS011;4322;51.104;-4.162;2022-09-09T12:49:28;3.40;;;3.30;;
8568;SDS011;4322;51.104;-4.162;2022-09-09T12:52:01;3.20;;;3.10;;
8568;SDS011;4322;51.104;-4.162;2022-09-09T12:54:32;2.90;;;2.80;;
8568;SDS011;4322;51.104;-4.162;2022-09-09T12:57:03;2.63;;;2.53;;
8568;SDS011;4322;51.104;-4.162;2022-09-09T12:59:36;3.00;;;2.90;;
8568;SDS011;4322;51.104;-4.162;2022-09-09T13:02:16;3.00;;;2.90;;
8568;SDS011;4322;51.104;-4.162;2022-09-09T13:04:47;5.00;;;4.80;;
8568;SDS011;4322;51.104;-4.162;2022-09-09T13:07:17;7.23;;;6.93;;
8568;SDS011;4322;51.104;-4.162;2022-09-09T13:09:46;11.40;;;10.87;;
8568;SDS011;4322;51.104;-4.162;2022-09-09T13:12:18;15.87;;;15.07;;
8568;SDS011;4322;51.104;-4.162;2022-09-09T13:14:47;13.33;;;12.70;;
8568;SDS011;4322;51.104;-4.162;2022-09-09T13:17:19;14.43;;;13.73;;
8568;SDS011;4322;51.104;-4.162;2022-09-09T13:19:49;14.07;;;13.37;;
8568;SDS011;4322;51.104;-4.162;2022-09-09T13:22:21;15.97;;;15.17;;
8568;SDS011;4322;51.104;-4.162;2022-09-09T13:25:00;18.90;;;17.97;;
8568;SDS011;4322;51.104;-4.162;2022-09-09T13:27:33;17.53;;;16.63;;
8568;SDS011;4322;51.104;-4.162;2022-09-09T13:30:19;15.97;;;15.17;;
8568;SDS011;4322;51.104;-4.162;2022-09-09T13:32:59;15.90;;;15.10;;
8568;SDS011;4322;51.104;-4.162;2022-09-09T13:35:28;13.50;;;12.80;;
8568;SDS011;4322;51.104;-4.162;2022-09-09T13:37:56;15.87;;;15.07;;
8568;SDS011;4322;51.104;-4.162;2022-09-09T13:40:26;14.10;;;13.40;;
8568;SDS011;4322;51.104;-4.162;2022-09-09T13:42:56;15.47;;;14.67;;
8568;SDS011;4322;51.104;-4.162;2022-09-09T13:45:25;13.97;;;13.27;;
8568;SDS011;4322;51.104;-4.162;2022-09-09T13:47:54;11.30;;;10.80;;
8568;SDS011;4322;51.104;-4.162;2022-09-09T13:50:24;12.63;;;12.03;;
8568;SDS011;4322;51.104;-4.162;2022-09-09T13:52:54;15.37;;;14.60;;
8568;SDS011;4322;51.104;-4.162;2022-09-09T13:55:25;10.03;;;9.53;;
8568;SDS011;4322;51.104;-4.162;2022-09-09T13:57:56;13.97;;;13.27;;
8568;SDS011;4322;51.104;-4.162;2022-09-09T14:00:28;10.27;;;9.77;;
8568;SDS011;4322;51.104;-4.162;2022-09-09T14:02:58;11.73;;;11.13;;
8568;SDS011;4322;51.104;-4.162;2022-09-09T14:05:29;11.00;;;10.50;;
8568;SDS011;4322;51.104;-4.162;2022-09-09T14:07:59;18.47;;;17.57;;
8568;SDS011;4322;51.104;-4.162;2022-09-09T14:10:27;14.23;;;13.53;;
8568;SDS011;4322;51.104;-4.162;2022-09-09T14:12:57;13.83;;;13.13;;
8568;SDS011;4322;51.104;-4.162;2022-09-09T14:15:25;11.77;;;11.17;;
8568;SDS011;4322;51.104;-4.162;2022-09-09T14:17:53;15.07;;;14.37;;
8568;SDS011;4322;51.104;-4.162;2022-09-09T14:20:21;12.27;;;11.67;;
8568;SDS011;4322;51.104;-4.162;2022-09-09T14:22:49;15.20;;;14.43;;
8568;SDS011;4322;51.104;-4.162;2022-09-09T14:25:16;15.57;;;14.77;;
8568;SDS011;4322;51.104;-4.162;2022-09-09T14:27:44;17.17;;;16.27;;
8568;SDS011;4322;51.104;-4.162;2022-09-09T14:30:14;20.20;;;19.20;;
8568;SDS011;4322;51.104;-4.162;2022-09-09T14:32:42;15.77;;;14.97;;
8568;SDS011;4322;51.104;-4.162;2022-09-09T14:35:10;14.00;;;13.30;;
8568;SDS011;4322;51.104;-4.162;2022-09-09T14:37:38;14.40;;;13.70;;
8568;SDS011;4322;51.104;-4.162;2022-09-09T14:40:06;14.80;;;14.10;;
8568;SDS011;4322;51.104;-4.162;2022-09-09T14:42:35;12.97;;;12.37;;
8568;SDS011;4322;51.104;-4.162;2022-09-09T14:45:03;15.27;;;14.50;;
8568;SDS011;4322;51.104;-4.162;2022-09-09T14:47:33;13.90;;;13.20;;
8568;SDS011;4322;51.104;-4.162;2022-09-09T14:50:01;14.30;;;13.60;;
8568;SDS011;4322;51.104;-4.162;2022-09-09T14:52:31;12.70;;;12.10;;
8568;SDS011;4322;51.104;-4.162;2022-09-09T14:54:59;10.90;;;10.40;;
8568;SDS011;4322;51.104;-4.162;2022-09-09T14:57:27;10.83;;;10.33;;
8568;SDS011;4322;51.104;-4.162;2022-09-09T14:59:55;10.73;;;10.23;;
8568;SDS011;4322;51.104;-4.162;2022-09-09T15:02:23;12.20;;;11.60;;
8568;SDS011;4322;51.104;-4.162;2022-09-09T15:04:52;12.10;;;11.50;;
8568;SDS011;4322;51.104;-4.162;2022-09-09T15:07:23;12.47;;;11.87;;
8568;SDS011;4322;51.104;-4.162;2022-09-09T15:09:51;11.03;;;10.53;;
8568;SDS011;4322;51.104;-4.162;2022-09-09T15:12:20;12.07;;;11.47;;
8568;SDS011;4322;51.104;-4.162;2022-09-09T15:14:48;11.43;;;10.90;;
8568;SDS011;4322;51.104;-4.162;2022-09-09T15:17:16;11.20;;;10.70;;
8568;SDS011;4322;51.104;-4.162;2022-09-09T15:19:44;10.63;;;10.13;;
8568;SDS011;4322;51.104;-4.162;2022-09-09T15:22:13;12.20;;;11.60;;
8568;SDS011;4322;51.104;-4.162;2022-09-09T15:24:41;13.40;;;12.73;;
8568;SDS011;4322;51.104;-4.162;2022-09-09T15:27:10;12.50;;;11.90;;
8568;SDS011;4322;51.104;-4.162;2022-09-09T15:29:40;11.07;;;10.57;;
8568;SDS011;4322;51.104;-4.162;2022-09-09T15:32:10;10.70;;;10.20;;
8568;SDS011;4322;51.104;-4.162;2022-09-09T15:34:38;9.37;;;8.97;;